createdAt,value
2023-04-26T00:01:31.738Z,2.53
2023-04-26T00:03:58.745Z,2.53
2023-04-26T00:06:27.071Z,2.63
2023-04-26T00:08:54.184Z,2.65
2023-04-26T00:11:21.240Z,2.30
2023-04-26T00:13:48.058Z,2.38
2023-04-26T00:16:14.868Z,2.53
2023-04-26T00:18:41.702Z,2.80
2023-04-26T00:21:08.565Z,2.80
2023-04-26T00:23:36.570Z,2.38
2023-04-26T00:26:03.732Z,2.35
2023-04-26T00:28:31.396Z,2.70
2023-04-26T00:30:58.353Z,2.65
2023-04-26T00:33:25.905Z,2.50
2023-04-26T00:35:52.949Z,2.80
2023-04-26T00:38:19.836Z,2.60
2023-04-26T00:40:46.738Z,2.30
2023-04-26T00:43:13.566Z,2.38
2023-04-26T00:45:40.450Z,2.55
2023-04-26T00:48:07.499Z,2.65
2023-04-26T00:50:34.533Z,2.45
2023-04-26T00:53:03.671Z,2.88
2023-04-26T00:55:30.804Z,2.42
2023-04-26T00:57:57.729Z,2.55
2023-04-26T01:00:25.777Z,2.42
2023-04-26T01:02:52.853Z,2.38
2023-04-26T01:05:19.838Z,2.30
2023-04-26T01:07:47.458Z,2.60
2023-04-26T01:10:14.231Z,2.15
2023-04-26T01:12:41.440Z,2.25
2023-04-26T01:15:11.318Z,2.40
2023-04-26T01:17:38.727Z,2.38
2023-04-26T01:20:08.848Z,2.20
2023-04-26T01:22:36.458Z,2.53
2023-04-26T01:25:07.560Z,2.30
2023-04-26T01:27:34.825Z,2.50
2023-04-26T01:30:01.931Z,2.08
2023-04-26T01:32:31.199Z,2.42
2023-04-26T01:34:58.467Z,2.65
2023-04-26T01:37:25.383Z,2.30
2023-04-26T01:39:52.677Z,2.65
2023-04-26T01:42:20.383Z,2.60
2023-04-26T01:44:47.229Z,2.67
2023-04-26T01:47:14.060Z,2.75
2023-04-26T01:49:41.596Z,2.78
2023-04-26T01:52:08.498Z,2.85
2023-04-26T01:54:35.316Z,2.50
2023-04-26T01:57:02.700Z,2.70
2023-04-26T01:59:29.754Z,2.80
2023-04-26T02:01:58.910Z,2.00
2023-04-26T02:04:27.664Z,2.30
2023-04-26T02:06:54.786Z,3.80
2023-04-26T02:09:24.026Z,4.70
2023-04-26T02:11:50.811Z,2.70
2023-04-26T02:14:17.670Z,2.30
2023-04-26T02:16:44.774Z,2.40
2023-04-26T02:19:13.496Z,2.50
2023-04-26T02:21:57.694Z,2.08
2023-04-26T02:24:25.452Z,2.30
2023-04-26T02:26:54.329Z,2.08
2023-04-26T02:29:29.422Z,2.78
2023-04-26T02:32:03.140Z,2.35
2023-04-26T02:34:29.964Z,2.63
2023-04-26T02:36:56.940Z,2.72
2023-04-26T02:39:24.723Z,3.38
2023-04-26T02:41:51.567Z,2.55
2023-04-26T02:44:18.420Z,3.08
2023-04-26T02:46:45.297Z,2.33
2023-04-26T02:49:12.149Z,2.05
2023-04-26T02:51:39.017Z,2.33
2023-04-26T02:54:07.060Z,2.13
2023-04-26T02:56:34.551Z,2.58
2023-04-26T02:59:01.603Z,2.42
2023-04-26T03:01:28.420Z,3.22
2023-04-26T03:03:55.687Z,3.03
2023-04-26T03:06:23.525Z,3.33
2023-04-26T03:08:50.721Z,3.28
2023-04-26T03:11:17.679Z,3.10
2023-04-26T03:13:44.647Z,3.08
2023-04-26T03:16:11.599Z,2.88
2023-04-26T03:18:38.449Z,3.33
2023-04-26T03:21:06.649Z,3.40
2023-04-26T03:23:34.101Z,2.97
2023-04-26T03:26:01.155Z,3.35
2023-04-26T03:28:28.339Z,4.18
2023-04-26T03:30:55.675Z,4.15
2023-04-26T03:33:22.827Z,3.65
2023-04-26T03:35:49.819Z,3.75
2023-04-26T03:38:17.484Z,3.40
2023-04-26T03:40:45.219Z,2.78
2023-04-26T03:43:12.073Z,2.58
2023-04-26T03:45:38.876Z,2.30
2023-04-26T03:48:07.158Z,2.50
2023-04-26T03:50:34.045Z,2.70
2023-04-26T03:53:00.907Z,2.47
2023-04-26T03:55:27.980Z,2.72
2023-04-26T03:57:54.877Z,2.20
2023-04-26T04:00:23.481Z,2.60
2023-04-26T04:02:50.643Z,2.60
2023-04-26T04:05:24.156Z,2.47
2023-04-26T04:07:50.984Z,2.65
2023-04-26T04:10:17.814Z,2.97
2023-04-26T04:12:45.504Z,3.13
2023-04-26T04:15:12.489Z,4.05
2023-04-26T04:17:44.591Z,4.47
2023-04-26T04:20:12.439Z,4.03
2023-04-26T04:22:40.285Z,3.60
2023-04-26T04:25:13.711Z,3.15
2023-04-26T04:27:43.301Z,2.80
2023-04-26T04:30:12.088Z,2.72
2023-04-26T04:32:40.306Z,2.92
2023-04-26T04:35:07.811Z,2.42
2023-04-26T04:37:35.223Z,2.20
2023-04-26T04:40:04.660Z,3.05
2023-04-26T04:42:34.870Z,2.58
2023-04-26T04:45:03.308Z,3.20
2023-04-26T04:47:30.272Z,2.55
2023-04-26T04:49:57.169Z,3.05
2023-04-26T04:52:24.025Z,2.78
2023-04-26T04:54:51.101Z,2.88
2023-04-26T04:57:18.808Z,3.28
2023-04-26T04:59:47.402Z,2.80
2023-04-26T05:02:14.393Z,2.63
2023-04-26T05:04:41.588Z,2.70
2023-04-26T05:07:09.397Z,3.10
2023-04-26T05:12:08.171Z,2.75
2023-04-26T05:14:35.326Z,3.15
2023-04-26T05:17:02.188Z,2.90
2023-04-26T05:19:29.127Z,3.85
2023-04-26T05:21:57.807Z,3.17
2023-04-26T05:24:24.712Z,3.78
2023-04-26T05:26:51.862Z,3.63
2023-04-26T05:29:38.182Z,3.42
2023-04-26T05:32:24.761Z,2.83
2023-04-26T05:35:02.643Z,3.13
2023-04-26T05:37:30.698Z,4.50
2023-04-26T05:39:57.747Z,9.02
2023-04-26T05:42:24.539Z,5.40
2023-04-26T05:44:51.390Z,3.67
2023-04-26T05:47:18.290Z,3.92
2023-04-26T05:49:45.445Z,3.58
2023-04-26T05:52:12.282Z,3.30
2023-04-26T05:54:39.933Z,3.78
2023-04-26T05:57:06.932Z,3.95
2023-04-26T05:59:36.971Z,4.10
2023-04-26T06:02:05.050Z,3.55
2023-04-26T06:04:32.828Z,3.90
2023-04-26T06:07:10.407Z,4.55
2023-04-26T06:09:37.355Z,4.07
2023-04-26T06:12:04.669Z,5.15
2023-04-26T06:14:34.621Z,5.20
2023-04-26T06:17:05.971Z,4.78
2023-04-26T06:19:32.893Z,5.07
2023-04-26T06:21:59.725Z,4.40
2023-04-26T06:24:26.658Z,5.45
2023-04-26T06:26:53.811Z,5.35
2023-04-26T06:29:21.562Z,5.38
2023-04-26T06:31:48.634Z,5.05
2023-04-26T06:34:16.132Z,5.82
2023-04-26T06:36:43.004Z,4.82
2023-04-26T06:39:11.171Z,4.80
2023-04-26T06:41:39.014Z,5.65
2023-04-26T06:44:05.983Z,4.60
2023-04-26T06:46:32.900Z,4.80
2023-04-26T06:49:01.440Z,4.45
2023-04-26T06:51:29.630Z,3.80
2023-04-26T06:53:59.007Z,4.15
2023-04-26T06:56:26.035Z,3.55
2023-04-26T06:59:01.785Z,3.40
2023-04-26T07:01:29.554Z,3.95
2023-04-26T07:03:59.676Z,3.88
2023-04-26T07:06:27.004Z,4.18
2023-04-26T07:08:54.295Z,3.67
2023-04-26T07:11:23.403Z,3.58
2023-04-26T07:13:52.577Z,3.60
2023-04-26T07:16:20.026Z,4.13
2023-04-26T07:18:48.593Z,4.55
2023-04-26T07:21:15.842Z,3.67
2023-04-26T07:23:42.624Z,4.22
2023-04-26T07:26:11.502Z,4.35
2023-04-26T07:28:38.349Z,4.38
2023-04-26T07:31:07.789Z,3.50
2023-04-26T07:33:35.757Z,3.88
2023-04-26T07:36:02.890Z,4.28
2023-04-26T07:38:29.736Z,3.75
2023-04-26T07:40:56.634Z,4.85
2023-04-26T07:43:23.498Z,3.95
2023-04-26T07:45:50.337Z,4.28
2023-04-26T07:48:17.176Z,3.35
2023-04-26T07:50:44.166Z,3.47
2023-04-26T07:53:11.044Z,3.85
2023-04-26T07:55:37.953Z,3.63
2023-04-26T07:58:04.764Z,3.85
2023-04-26T08:00:31.638Z,3.30
2023-04-26T08:02:58.677Z,3.58
2023-04-26T08:05:25.955Z,3.33
2023-04-26T08:07:52.898Z,2.95
2023-04-26T08:10:19.811Z,3.55
2023-04-26T08:12:46.740Z,2.90
2023-04-26T08:15:13.663Z,3.80
2023-04-26T08:17:41.348Z,3.33
2023-04-26T08:20:09.618Z,3.35
2023-04-26T08:22:36.797Z,3.97
2023-04-26T08:25:04.668Z,2.55
2023-04-26T08:27:31.879Z,2.95
2023-04-26T08:29:58.701Z,2.80
2023-04-26T08:32:26.090Z,3.13
2023-04-26T08:34:52.982Z,3.53
2023-04-26T08:37:19.823Z,2.88
2023-04-26T08:39:46.927Z,3.15
2023-04-26T08:42:16.448Z,2.70
2023-04-26T08:44:45.592Z,3.50
2023-04-26T08:47:48.033Z,2.70
2023-04-26T08:50:18.583Z,2.67
2023-04-26T08:52:50.754Z,2.60
2023-04-26T08:55:22.484Z,2.78
2023-04-26T08:57:50.726Z,2.50
2023-04-26T09:00:19.622Z,3.08
2023-04-26T09:02:49.893Z,2.70
2023-04-26T09:05:17.368Z,2.58
2023-04-26T09:07:48.268Z,2.90
2023-04-26T09:10:22.205Z,2.40
2023-04-26T09:12:53.645Z,2.78
2023-04-26T09:15:26.432Z,2.15
2023-04-26T09:17:53.911Z,2.78
2023-04-26T09:20:28.974Z,2.58
2023-04-26T09:23:09.914Z,2.45
2023-04-26T09:25:37.482Z,2.10
2023-04-26T09:28:19.114Z,2.45
2023-04-26T09:30:46.203Z,1.85
2023-04-26T09:33:13.086Z,1.90
2023-04-26T09:35:44.308Z,3.53
2023-04-26T09:38:14.662Z,2.08
2023-04-26T09:40:49.980Z,2.20
2023-04-26T09:43:19.668Z,2.42
2023-04-26T09:45:53.546Z,2.63
2023-04-26T09:48:30.256Z,3.13
2023-04-26T09:50:59.628Z,2.92
2023-04-26T09:53:31.743Z,3.00
2023-04-26T09:56:18.916Z,3.03
2023-04-26T09:59:02.457Z,2.67
2023-04-26T10:01:32.661Z,2.40
2023-04-26T10:04:04.374Z,2.83
2023-04-26T10:06:32.843Z,2.30
2023-04-26T10:09:01.798Z,2.38
2023-04-26T10:11:30.450Z,2.75
2023-04-26T10:13:57.532Z,2.35
2023-04-26T10:16:24.659Z,2.53
2023-04-26T10:18:51.727Z,2.15
2023-04-26T10:21:32.544Z,1.90
2023-04-26T10:24:00.425Z,2.83
2023-04-26T10:26:52.712Z,2.20
2023-04-26T10:29:21.144Z,1.95
2023-04-26T10:32:06.203Z,2.15
2023-04-26T10:34:35.064Z,2.00
2023-04-26T10:37:16.745Z,1.88
2023-04-26T10:39:45.497Z,1.92
2023-04-26T10:42:30.742Z,1.95
2023-04-26T10:44:59.559Z,2.20
2023-04-26T10:47:36.923Z,2.42
2023-04-26T10:50:12.726Z,2.30
2023-04-26T10:53:03.507Z,2.20
2023-04-26T10:55:41.714Z,2.45
2023-04-26T10:58:35.309Z,2.40
2023-04-26T11:01:18.843Z,2.15
2023-04-26T11:03:58.737Z,2.45
2023-04-26T11:06:26.767Z,2.45
2023-04-26T11:08:54.467Z,2.20
2023-04-26T11:11:26.837Z,2.83
2023-04-26T11:13:53.652Z,2.35
2023-04-26T11:16:20.676Z,2.17
2023-04-26T11:18:48.207Z,1.92
2023-04-26T11:21:17.906Z,2.42
2023-04-26T11:23:54.585Z,2.40
2023-04-26T11:26:22.304Z,2.25
2023-04-26T11:28:49.581Z,2.03
2023-04-26T11:31:19.132Z,2.20
2023-04-26T11:33:47.792Z,2.17
2023-04-26T11:36:17.078Z,2.00
2023-04-26T11:38:44.167Z,2.20
2023-04-26T11:41:11.397Z,2.28
2023-04-26T11:43:39.816Z,2.03
2023-04-26T11:46:08.424Z,1.98
2023-04-26T11:48:37.524Z,2.30
2023-04-26T11:51:07.216Z,1.90
2023-04-26T11:53:40.289Z,1.70
2023-04-26T11:56:18.366Z,2.00
2023-04-26T11:58:50.857Z,1.98
2023-04-26T12:01:22.066Z,1.60
2023-04-26T12:03:55.743Z,1.83
2023-04-26T12:06:43.473Z,1.70
2023-04-26T12:09:11.608Z,1.70
2023-04-26T12:11:39.554Z,1.75
2023-04-26T12:14:08.027Z,1.80
2023-04-26T12:16:38.332Z,1.88
2023-04-26T12:19:09.014Z,2.38
2023-04-26T12:21:45.172Z,2.00
2023-04-26T12:24:26.774Z,1.92
2023-04-26T12:26:53.675Z,1.83
2023-04-26T12:29:20.514Z,2.00
2023-04-26T12:31:47.836Z,1.90
2023-04-26T12:34:14.659Z,2.08
2023-04-26T12:36:44.437Z,1.80
2023-04-26T12:39:14.322Z,2.40
2023-04-26T12:44:09.909Z,2.08
2023-04-26T12:46:37.059Z,1.92
2023-04-26T12:49:04.599Z,2.10
2023-04-26T12:51:31.994Z,2.17
2023-04-26T12:53:58.951Z,1.80
2023-04-26T12:56:25.885Z,1.95
2023-04-26T12:58:52.692Z,2.15
2023-04-26T13:01:19.674Z,1.55
2023-04-26T13:03:46.845Z,2.17
2023-04-26T13:06:13.858Z,1.85
2023-04-26T13:08:42.289Z,2.10
2023-04-26T13:11:09.075Z,1.75
2023-04-26T13:13:43.139Z,1.92
2023-04-26T13:16:12.330Z,1.90
2023-04-26T13:18:40.369Z,2.13
2023-04-26T13:21:07.440Z,1.90
2023-04-26T13:23:34.239Z,1.70
2023-04-26T13:26:01.005Z,1.83
2023-04-26T13:28:27.824Z,2.17
2023-04-26T13:30:55.742Z,1.98
2023-04-26T13:33:22.657Z,1.92
2023-04-26T13:35:49.480Z,1.83
2023-04-26T13:38:16.784Z,1.73
2023-04-26T13:40:44.160Z,2.03
2023-04-26T13:43:11.154Z,2.20
2023-04-26T13:45:38.744Z,2.00
2023-04-26T13:48:05.729Z,1.88
2023-04-26T13:50:32.581Z,1.88
2023-04-26T13:53:00.147Z,1.60
2023-04-26T13:55:26.946Z,1.55
2023-04-26T13:57:53.795Z,2.22
2023-04-26T14:00:21.249Z,2.33
2023-04-26T14:02:49.419Z,1.65
2023-04-26T14:05:16.621Z,1.73
2023-04-26T14:07:43.753Z,1.70
2023-04-26T14:10:12.103Z,1.85
2023-04-26T14:12:39.636Z,1.38
2023-04-26T14:15:07.702Z,1.35
2023-04-26T14:17:34.581Z,1.55
2023-04-26T14:20:01.542Z,1.70
2023-04-26T14:22:28.372Z,1.58
2023-04-26T14:24:55.202Z,1.35
2023-04-26T14:27:22.000Z,1.48
2023-04-26T14:29:48.864Z,1.30
2023-04-26T14:32:15.856Z,1.35
2023-04-26T14:34:43.026Z,1.27
2023-04-26T14:37:10.319Z,1.42
2023-04-26T14:39:37.292Z,1.55
2023-04-26T14:42:04.775Z,2.08
2023-04-26T14:44:31.800Z,1.70
2023-04-26T14:46:58.645Z,1.85
2023-04-26T14:49:25.651Z,1.95
2023-04-26T14:51:53.729Z,1.60
2023-04-26T14:54:21.393Z,1.67
2023-04-26T14:56:48.679Z,1.30
2023-04-26T14:59:15.967Z,1.63
2023-04-26T15:01:43.031Z,1.13
2023-04-26T15:04:10.171Z,1.58
2023-04-26T15:06:37.130Z,1.55
2023-04-26T15:09:04.519Z,1.35
2023-04-26T15:11:31.364Z,1.35
2023-04-26T15:13:58.333Z,1.30
2023-04-26T15:16:25.265Z,1.70
2023-04-26T15:18:52.148Z,1.50
2023-04-26T15:21:19.420Z,1.50
2023-04-26T15:23:46.500Z,1.60
2023-04-26T15:26:14.253Z,1.42
2023-04-26T15:28:41.142Z,1.50
2023-04-26T15:31:09.834Z,1.45
2023-04-26T15:33:36.721Z,1.45
2023-04-26T15:36:03.937Z,1.40
2023-04-26T15:38:30.745Z,1.30
2023-04-26T15:40:57.631Z,1.35
2023-04-26T15:43:24.429Z,1.85
2023-04-26T15:45:51.474Z,1.67
2023-04-26T15:48:18.378Z,1.70
2023-04-26T15:50:46.119Z,1.80
2023-04-26T15:53:12.941Z,1.80
2023-04-26T15:55:39.708Z,1.60
2023-04-26T15:58:06.501Z,1.60
2023-04-26T16:00:33.944Z,1.70
2023-04-26T16:03:02.145Z,1.60
2023-04-26T16:05:29.261Z,1.70
2023-04-26T16:07:56.255Z,1.60
2023-04-26T16:10:23.760Z,1.90
2023-04-26T16:12:50.805Z,1.58
2023-04-26T16:15:18.042Z,1.80
2023-04-26T16:17:44.949Z,1.70
2023-04-26T16:20:12.100Z,1.67
2023-04-26T16:22:38.921Z,1.58
2023-04-26T16:25:06.862Z,1.50
2023-04-26T16:27:33.936Z,1.67
2023-04-26T16:30:00.998Z,1.77
2023-04-26T16:32:30.525Z,1.67
2023-04-26T16:34:57.420Z,1.73
2023-04-26T16:37:24.244Z,1.45
2023-04-26T16:39:55.709Z,1.50
2023-04-26T16:42:22.740Z,1.30
2023-04-26T16:44:49.558Z,1.52
2023-04-26T16:47:16.386Z,1.40
2023-04-26T16:49:43.223Z,1.70
2023-04-26T16:52:10.110Z,1.60
2023-04-26T16:54:36.957Z,1.67
2023-04-26T16:57:04.419Z,1.80
2023-04-26T16:59:31.346Z,1.60
2023-04-26T17:01:58.282Z,1.85
2023-04-26T17:04:26.419Z,1.40
2023-04-26T17:06:54.576Z,1.67
2023-04-26T17:09:21.504Z,1.30
2023-04-26T17:11:49.875Z,1.80
2023-04-26T17:14:16.758Z,1.45
2023-04-26T17:16:43.698Z,1.38
2023-04-26T17:19:10.755Z,1.55
2023-04-26T17:21:37.662Z,1.73
2023-04-26T17:24:04.697Z,1.70
2023-04-26T17:26:31.521Z,1.80
2023-04-26T17:28:58.297Z,1.40
2023-04-26T17:31:25.420Z,1.38
2023-04-26T17:33:52.270Z,1.70
2023-04-26T17:36:19.399Z,1.60
2023-04-26T17:38:46.243Z,1.75
2023-04-26T17:41:13.522Z,2.00
2023-04-26T17:43:40.541Z,2.22
2023-04-26T17:46:07.509Z,3.58
2023-04-26T17:48:34.419Z,11.13
2023-04-26T17:51:01.265Z,4.72
2023-04-26T17:53:28.105Z,2.60
2023-04-26T17:55:55.188Z,10.88
2023-04-26T17:58:21.969Z,4.00
2023-04-26T18:00:49.434Z,2.38
2023-04-26T18:03:16.406Z,1.75
2023-04-26T18:05:43.779Z,1.65
2023-04-26T18:08:10.651Z,2.10
2023-04-26T18:10:37.517Z,4.13
2023-04-26T18:13:04.319Z,4.13
2023-04-26T18:15:31.294Z,10.98
2023-04-26T18:17:58.142Z,3.53
2023-04-26T18:20:24.943Z,2.40
2023-04-26T18:22:51.748Z,2.70
2023-04-26T18:25:18.931Z,3.53
2023-04-26T18:27:46.913Z,2.60
2023-04-26T18:30:13.873Z,2.10
2023-04-26T18:32:41.200Z,1.80
2023-04-26T18:35:08.528Z,1.70
2023-04-26T18:37:36.128Z,1.50
2023-04-26T18:40:04.945Z,1.23
2023-04-26T18:42:31.787Z,1.58
2023-04-26T18:44:59.599Z,1.85
2023-04-26T18:47:26.629Z,1.65
2023-04-26T18:49:53.506Z,1.60
2023-04-26T18:52:22.577Z,1.70
2023-04-26T18:54:49.356Z,1.87
2023-04-26T18:57:21.817Z,2.58
2023-04-26T18:59:49.280Z,2.03
2023-04-26T19:02:16.112Z,1.88
2023-04-26T19:04:43.186Z,1.55
2023-04-26T19:07:10.097Z,1.90
2023-04-26T19:09:50.379Z,2.13
2023-04-26T19:12:20.431Z,1.92
2023-04-26T19:14:47.268Z,2.20
2023-04-26T19:17:14.308Z,2.40
2023-04-26T19:19:41.735Z,2.92
2023-04-26T19:22:08.571Z,1.90
2023-04-26T19:24:35.686Z,1.98
2023-04-26T19:27:02.769Z,1.98
2023-04-26T19:29:30.952Z,1.63
2023-04-26T19:31:59.912Z,2.00
2023-04-26T19:34:26.833Z,1.85
2023-04-26T19:36:53.670Z,1.85
2023-04-26T19:39:22.641Z,1.63
2023-04-26T19:44:20.265Z,1.90
2023-04-26T19:46:47.172Z,1.60
2023-04-26T19:49:14.007Z,1.98
2023-04-26T19:51:41.139Z,2.17
2023-04-26T19:54:07.913Z,2.83
2023-04-26T19:56:34.725Z,2.75
2023-04-26T19:59:01.546Z,2.15
2023-04-26T20:01:28.593Z,1.70
2023-04-26T20:03:55.711Z,1.67
2023-04-26T20:06:22.730Z,1.55
2023-04-26T20:08:49.508Z,1.63
2023-04-26T20:11:17.361Z,1.40
2023-04-26T20:13:45.280Z,1.60
2023-04-26T20:16:12.645Z,1.63
2023-04-26T20:18:39.653Z,1.90
2023-04-26T20:21:06.517Z,1.60
2023-04-26T20:23:33.469Z,1.70
2023-04-26T20:26:00.555Z,1.70
2023-04-26T20:28:27.371Z,1.83
2023-04-26T20:30:54.208Z,1.48
2023-04-26T20:33:21.265Z,1.92
2023-04-26T20:35:48.055Z,1.40
2023-04-26T20:38:14.852Z,1.60
2023-04-26T20:40:41.747Z,1.50
2023-04-26T20:43:08.615Z,2.05
2023-04-26T20:45:35.549Z,2.10
2023-04-26T20:48:02.415Z,2.10
2023-04-26T20:50:29.284Z,1.90
2023-04-26T20:52:56.216Z,1.92
2023-04-26T20:55:23.141Z,1.75
2023-04-26T20:57:49.995Z,2.00
2023-04-26T21:00:17.204Z,1.75
2023-04-26T21:02:44.152Z,2.03
2023-04-26T21:05:11.091Z,1.80
2023-04-26T21:07:37.924Z,1.75
2023-04-26T21:10:05.239Z,1.75
2023-04-26T21:12:32.107Z,1.83
2023-04-26T21:14:59.028Z,1.90
2023-04-26T21:17:25.889Z,1.88
2023-04-26T21:19:52.692Z,1.60
2023-04-26T21:22:19.505Z,2.00
2023-04-26T21:24:46.308Z,1.45
2023-04-26T21:27:13.146Z,1.85
2023-04-26T21:29:39.917Z,1.40
2023-04-26T21:32:06.704Z,1.38
2023-04-26T21:34:33.458Z,1.63
2023-04-26T21:37:00.328Z,1.63
2023-04-26T21:39:27.133Z,1.30
2023-04-26T21:41:53.910Z,1.70
2023-04-26T21:44:20.806Z,1.60
2023-04-26T21:46:47.689Z,1.83
2023-04-26T21:49:14.500Z,2.00
2023-04-26T21:51:41.318Z,2.00
2023-04-26T21:54:08.143Z,1.95
2023-04-26T21:56:34.915Z,1.98
2023-04-26T21:59:02.510Z,1.83
2023-04-26T22:01:29.498Z,2.00
2023-04-26T22:03:56.490Z,1.65
2023-04-26T22:06:23.466Z,1.75
2023-04-26T22:08:50.461Z,2.03
2023-04-26T22:11:17.258Z,1.80
2023-04-26T22:13:44.099Z,2.00
2023-04-26T22:16:11.006Z,2.05
2023-04-26T22:18:37.826Z,1.90
2023-04-26T22:21:04.599Z,1.73
2023-04-26T22:23:31.476Z,2.10
2023-04-26T22:26:00.469Z,1.80
2023-04-26T22:28:27.280Z,2.40
2023-04-26T22:30:54.116Z,1.70
2023-04-26T22:33:21.435Z,2.03
2023-04-26T22:35:48.314Z,2.08
2023-04-26T22:38:15.149Z,1.83
2023-04-26T22:40:42.402Z,1.67
2023-04-26T22:43:09.220Z,1.90
2023-04-26T22:45:37.040Z,1.98
2023-04-26T22:48:04.180Z,1.88
2023-04-26T22:50:31.238Z,1.60
2023-04-26T22:52:58.054Z,1.75
2023-04-26T22:55:25.003Z,1.83
2023-04-26T22:57:51.897Z,1.77
2023-04-26T23:00:19.850Z,1.35
2023-04-26T23:02:46.821Z,2.03
2023-04-26T23:05:13.714Z,2.03
2023-04-26T23:07:40.609Z,2.50
2023-04-26T23:10:08.245Z,2.40
2023-04-26T23:12:38.579Z,2.33
2023-04-26T23:15:06.235Z,2.30
2023-04-26T23:17:34.406Z,2.30
2023-04-26T23:20:01.253Z,2.00
2023-04-26T23:22:28.152Z,2.15
2023-04-26T23:24:55.042Z,2.38
2023-04-26T23:27:21.876Z,1.83
2023-04-26T23:29:50.620Z,2.25
2023-04-26T23:32:17.421Z,2.10
2023-04-26T23:34:44.374Z,2.20
2023-04-26T23:37:11.250Z,1.80
2023-04-26T23:39:38.056Z,2.00
2023-04-26T23:42:04.943Z,1.63
2023-04-26T23:44:31.739Z,1.98
2023-04-26T23:46:58.517Z,1.75
2023-04-26T23:49:25.682Z,1.80
2023-04-26T23:51:52.517Z,1.95
2023-04-26T23:54:19.413Z,1.90
2023-04-26T23:56:46.457Z,1.73
2023-04-26T23:59:14.234Z,1.80
